Charles Town, West Virginia
Current Conditions -  °F | °C
As of 3:53 AM on Friday 24 Oct 2014 (Local Time) from KMRB Reporting Station
Clear Clear  
Wind Chill: 53°   Ceiling: Unl
Heat Index: 53°   Visibility: 10mi
Dew Point: 40°   Wind: 14mph
Humidity: 61%   Direction: 310°NW
Pressure: 29.97"   Gusts: NA
Location:  39.29°N, 77.86°W
Report Text: KMRB 240753Z AUTO 31012KT 10SM CLR 12/04 A2997 RMK AO2 SLP147 T01170044 TSNO
Loading
Personal Weather Stations






























Interactive Weather Map
Tropical Storm Tracking
New forecast layout! Learn more

10-Day Weather Forecast

Advertisements
Track Severe Weather on mobile